EXS13N EGPH-LGRP
Flight info
| Callsign | EXS13N |
|---|---|
| Flight time | N/A |
| Altitude | 35000 |
| Route | TLA Y96 HAVEN DCT OTBUN DCT ERKIT N110 DOLAS DCT NAVPI DCT TIVUN DCT ESAMA DCT OSBIT DCT TENLO DCT LAMSI DCT NIDLO/N0438F370 DCT VABEK UL603 OLOTA DCT RUGAS DCT GIKAS DCT MES UN139 LURUS UL995 CODIC |
| Aircraft | B738/M-SDE2E3FGHIRWXY/LB1 |
Departure
| Time | 2026-05-04 15:54 |
|---|---|
| Airport | Edinburgh Airport (EGPH) |
Arrival
| Time | N/A |
|---|---|
| Airport | Rhodes International Airport "Diagoras" (LGRP) |
| Time | Latitude | Longitude | Altitude | Speed | Heading |
|---|---|---|---|---|---|
| 2026-05-04 15:27 | 55.94857 | -3.36607 | 115 ft | 0 kts | 145° |
| 2026-05-04 15:47 | 55.94868 | -3.36620 | 111 ft | 4 kts | 142° |
| 2026-05-04 15:47 | 55.94888 | -3.36652 | 113 ft | 4 kts | 131° |
| 2026-05-04 15:47 | 55.94902 | -3.36690 | 111 ft | 4 kts | 107° |
| 2026-05-04 15:48 | 55.94902 | -3.36726 | 111 ft | 1 kts | 59° |
| 2026-05-04 15:48 | 55.94902 | -3.36727 | 111 ft | 0 kts | 59° |
| 2026-05-04 15:50 | 55.94910 | -3.36703 | 113 ft | 5 kts | 59° |
| 2026-05-04 15:50 | 55.94943 | -3.36608 | 115 ft | 12 kts | 59° |
| 2026-05-04 15:51 | 55.94997 | -3.36447 | 112 ft | 17 kts | 59° |
| 2026-05-04 15:51 | 55.95092 | -3.36383 | 114 ft | 15 kts | 33° |
| 2026-05-04 15:51 | 55.95156 | -3.36220 | 114 ft | 18 kts | 59° |
| 2026-05-04 15:51 | 55.95232 | -3.35993 | 114 ft | 22 kts | 58° |
| 2026-05-04 15:52 | 55.95311 | -3.35761 | 113 ft | 22 kts | 59° |
| 2026-05-04 15:52 | 55.95388 | -3.35536 | 115 ft | 21 kts | 59° |
| 2026-05-04 15:52 | 55.95464 | -3.35409 | 115 ft | 12 kts | 349° |
| 2026-05-04 15:52 | 55.95538 | -3.35487 | 112 ft | 13 kts | 328° |
| 2026-05-04 15:53 | 55.95571 | -3.35569 | 112 ft | 2 kts | 252° |
| 2026-05-04 15:53 | 55.95565 | -3.35584 | 112 ft | 0 kts | 239° |
| 2026-05-04 15:53 | 55.95537 | -3.35669 | 112 ft | 29 kts | 239° |
| 2026-05-04 15:54 | 55.95297 | -3.36375 | 110 ft | 102 kts | 239° |
| 2026-05-04 15:54 | 55.94817 | -3.37787 | 130 ft | 160 kts | 241° |
| 2026-05-04 15:54 | 55.94236 | -3.39516 | 921 ft | 157 kts | 241° |
| 2026-05-04 15:54 | 55.93668 | -3.41160 | 1874 ft | 158 kts | 243° |
| 2026-05-04 15:55 | 55.93046 | -3.42964 | 2310 ft | 186 kts | 241° |
| 2026-05-04 15:55 | 55.92320 | -3.45063 | 2549 ft | 212 kts | 242° |
| 2026-05-04 15:55 | 55.91532 | -3.47323 | 3079 ft | 221 kts | 240° |
| 2026-05-04 15:55 | 55.90690 | -3.49752 | 3476 ft | 243 kts | 241° |
| 2026-05-04 15:56 | 55.89800 | -3.52423 | 4231 ft | 248 kts | 243° |
| 2026-05-04 15:56 | 55.88942 | -3.55057 | 5066 ft | 253 kts | 242° |
| 2026-05-04 15:56 | 55.87991 | -3.57694 | 5707 ft | 254 kts | 229° |
| 2026-05-04 15:56 | 55.86500 | -3.59384 | 6200 ft | 263 kts | 200° |
| 2026-05-04 15:57 | 55.84648 | -3.59663 | 6914 ft | 275 kts | 174° |
| 2026-05-04 15:57 | 55.82855 | -3.58367 | 7644 ft | 287 kts | 144° |
| 2026-05-04 15:57 | 55.81588 | -3.55588 | 8400 ft | 294 kts | 120° |
| 2026-05-04 15:57 | 55.80629 | -3.52344 | 9132 ft | 300 kts | 120° |
| 2026-05-04 15:58 | 55.79292 | -3.49550 | 9841 ft | 298 kts | 151° |
| 2026-05-04 15:58 | 55.77362 | -3.48410 | 10453 ft | 296 kts | 180° |
| 2026-05-04 15:58 | 55.75233 | -3.48237 | 10644 ft | 319 kts | 178° |
| 2026-05-04 15:58 | 55.72959 | -3.47586 | 10868 ft | 342 kts | 170° |
| 2026-05-04 15:59 | 55.70611 | -3.46518 | 11378 ft | 353 kts | 167° |
| 2026-05-04 15:59 | 55.68244 | -3.45273 | 12079 ft | 356 kts | 166° |
| 2026-05-04 15:59 | 55.65862 | -3.43966 | 12777 ft | 361 kts | 165° |
| 2026-05-04 15:59 | 55.63448 | -3.42636 | 13432 ft | 365 kts | 165° |
| 2026-05-04 16:00 | 55.61005 | -3.41297 | 14042 ft | 370 kts | 165° |
| 2026-05-04 16:00 | 55.58536 | -3.39955 | 14651 ft | 373 kts | 165° |
| 2026-05-04 16:00 | 55.56045 | -3.38610 | 15301 ft | 376 kts | 166° |
| 2026-05-04 16:00 | 55.53541 | -3.37201 | 15931 ft | 381 kts | 160° |
| 2026-05-04 16:01 | 55.51280 | -3.34697 | 16485 ft | 390 kts | 137° |
| 2026-05-04 16:01 | 55.49647 | -3.30861 | 17105 ft | 396 kts | 117° |
| 2026-05-04 16:01 | 55.48811 | -3.26231 | 17695 ft | 399 kts | 101° |
| 2026-05-04 16:01 | 55.48326 | -3.21388 | 18268 ft | 403 kts | 99° |
| 2026-05-04 16:02 | 55.47867 | -3.16483 | 18763 ft | 407 kts | 99° |
| 2026-05-04 16:02 | 55.47381 | -3.11554 | 19328 ft | 409 kts | 100° |
| 2026-05-04 16:02 | 55.46284 | -3.01675 | 20365 ft | 414 kts | 105° |
| 2026-05-04 16:03 | 55.45313 | -2.96888 | 20864 ft | 416 kts | 116° |
| 2026-05-04 16:03 | 55.43941 | -2.92385 | 21389 ft | 418 kts | 120° |
| 2026-05-04 16:03 | 55.42494 | -2.87936 | 21913 ft | 420 kts | 121° |
| 2026-05-04 16:03 | 55.41031 | -2.83473 | 22419 ft | 422 kts | 121° |
| 2026-05-04 16:04 | 55.39565 | -2.78970 | 22863 ft | 426 kts | 120° |
| 2026-05-04 16:04 | 55.36637 | -2.69867 | 23803 ft | 430 kts | 120° |
| 2026-05-04 16:04 | 55.35168 | -2.65279 | 24185 ft | 433 kts | 120° |
| 2026-05-04 16:05 | 55.33684 | -2.60645 | 24541 ft | 436 kts | 120° |
| 2026-05-04 16:05 | 55.32197 | -2.56007 | 24977 ft | 437 kts | 120° |
| 2026-05-04 16:05 | 55.29139 | -2.46708 | 25698 ft | 442 kts | 124° |
| 2026-05-04 16:06 | 55.27228 | -2.42481 | 26009 ft | 445 kts | 134° |
| 2026-05-04 16:06 | 55.20800 | -2.33383 | 26927 ft | 450 kts | 144° |
| 2026-05-04 16:07 | 55.17424 | -2.29020 | 27380 ft | 452 kts | 144° |
| 2026-05-04 16:07 | 55.09832 | -2.19121 | 28368 ft | 458 kts | 143° |
| 2026-05-04 16:08 | 55.07279 | -2.15768 | 28617 ft | 462 kts | 143° |
| 2026-05-04 16:08 | 54.99543 | -2.05615 | 29562 ft | 466 kts | 143° |
| 2026-05-04 16:09 | 54.94347 | -1.98821 | 30215 ft | 467 kts | 143° |
| 2026-05-04 16:09 | 54.89202 | -1.92121 | 31124 ft | 460 kts | 143° |
| 2026-05-04 16:10 | 54.84078 | -1.85470 | 31714 ft | 459 kts | 143° |
| 2026-05-04 16:11 | 54.76442 | -1.75597 | 32771 ft | 454 kts | 143° |
| 2026-05-04 16:11 | 54.73909 | -1.72334 | 33106 ft | 453 kts | 143° |
| 2026-05-04 16:12 | 54.66378 | -1.62659 | 34132 ft | 447 kts | 143° |
| 2026-05-04 16:12 | 54.58917 | -1.53119 | 34778 ft | 446 kts | 143° |
| 2026-05-04 16:13 | 54.53927 | -1.46764 | 35002 ft | 447 kts | 143° |
| 2026-05-04 16:13 | 54.48923 | -1.40411 | 35020 ft | 446 kts | 143° |
| 2026-05-04 16:14 | 54.38976 | -1.27840 | 35023 ft | 442 kts | 143° |
| 2026-05-04 16:16 | 54.26662 | -1.12384 | 35025 ft | 439 kts | 143° |
| 2026-05-04 16:17 | 54.14351 | -0.97046 | 35034 ft | 438 kts | 143° |